Time;durP1;ratioP1;P1;durP2;ratioP2;P2;SDS_P1;SDS_P2;PMS_P1;PMS_P2;Temp;Humidity;BMP_temperature;BMP_pressure;BME280_temperature;BME280_humidity;BME280_pressure;Samples;Min_cycle;Max_cycle;Signal;HPM_P1;HPM_P2
2023/09/04 00:01:44;;;;;;;7.68;2.10;;;;;;;;;;5053909;28;20029;-73
2023/09/04 00:04:09;;;;;;;2.90;2.10;;;;;;;;;;5054154;28;20028;-73
2023/09/04 00:06:35;;;;;;;5.05;2.00;;;;;;;;;;5053881;28;20266;-73
2023/09/04 00:09:00;;;;;;;5.00;2.10;;;;;;;;;;5052471;28;20108;-73
2023/09/04 00:11:26;;;;;;;2.95;1.70;;;;;;;;;;5053809;28;20396;-73
2023/09/04 00:13:52;;;;;;;4.47;2.20;;;;;;;;;;5052741;28;20052;-73
2023/09/04 00:16:17;;;;;;;5.07;1.88;;;;;;;;;;5053771;28;20057;-74
2023/09/04 00:18:42;;;;;;;5.88;2.00;;;;;;;;;;5053893;28;20021;-73
2023/09/04 00:21:08;;;;;;;3.88;2.05;;;;;;;;;;5053604;28;20582;-73
2023/09/04 00:23:33;;;;;;;2.85;2.08;;;;;;;;;;5052336;28;20029;-73
2023/09/04 00:25:58;;;;;;;3.85;1.90;;;;;;;;;;5053975;28;20070;-73
2023/09/04 00:28:24;;;;;;;3.53;1.98;;;;;;;;;;5053375;28;20021;-71
2023/09/04 00:30:49;;;;;;;3.83;2.08;;;;;;;;;;5053632;28;20433;-72
2023/09/04 00:33:15;;;;;;;2.95;2.00;;;;;;;;;;5053453;28;20076;-73
2023/09/04 00:35:40;;;;;;;3.53;2.20;;;;;;;;;;5052130;28;20025;-73
2023/09/04 00:38:05;;;;;;;2.30;2.00;;;;;;;;;;5053719;28;20025;-75
2023/09/04 00:40:30;;;;;;;4.00;1.90;;;;;;;;;;5051852;28;20719;-74
2023/09/04 00:42:55;;;;;;;8.55;2.10;;;;;;;;;;5053369;28;20733;-74
2023/09/04 00:45:21;;;;;;;2.57;2.00;;;;;;;;;;5051998;28;20116;-74
2023/09/04 00:47:47;;;;;;;7.35;2.30;;;;;;;;;;5053019;28;20278;-74
2023/09/04 00:50:21;;;;;;;2.65;1.98;;;;;;;;;;5051632;28;20112;-74
2023/09/04 00:52:47;;;;;;;3.03;2.10;;;;;;;;;;5053450;28;20025;-74
2023/09/04 00:55:13;;;;;;;5.78;2.03;;;;;;;;;;5053219;28;20392;-74
2023/09/04 00:57:38;;;;;;;4.20;2.33;;;;;;;;;;5053256;28;20036;-74
2023/09/04 01:00:10;;;;;;;7.45;2.10;;;;;;;;;;5053235;28;20422;-74
2023/09/04 01:02:37;;;;;;;3.67;2.00;;;;;;;;;;5052961;28;20063;-74
2023/09/04 01:05:03;;;;;;;3.70;1.98;;;;;;;;;;5053314;28;20095;-74
2023/09/04 01:07:28;;;;;;;2.90;1.95;;;;;;;;;;5052821;28;20037;-74
2023/09/04 01:09:54;;;;;;;3.70;1.98;;;;;;;;;;5053216;28;20025;-74
2023/09/04 01:12:24;;;;;;;3.60;2.08;;;;;;;;;;5052823;28;20070;-74
2023/09/04 01:14:54;;;;;;;6.57;2.22;;;;;;;;;;5051524;28;20032;-75
2023/09/04 01:17:19;;;;;;;6.22;2.42;;;;;;;;;;5052678;28;20017;-75
2023/09/04 01:19:45;;;;;;;3.85;2.25;;;;;;;;;;5052661;28;20567;-74
2023/09/04 01:22:11;;;;;;;2.97;2.00;;;;;;;;;;5052659;28;20025;-74
2023/09/04 01:24:36;;;;;;;3.78;2.30;;;;;;;;;;5051460;28;20043;-74
2023/09/04 01:27:13;;;;;;;3.13;2.30;;;;;;;;;;5052612;28;20048;-74
2023/09/04 01:29:47;;;;;;;8.23;2.30;;;;;;;;;;5052804;28;20025;-74
2023/09/04 01:32:36;;;;;;;3.50;2.30;;;;;;;;;;5052748;28;20025;-74
2023/09/04 01:35:03;;;;;;;3.63;2.20;;;;;;;;;;5052848;28;20498;-74
2023/09/04 01:37:29;;;;;;;2.92;2.30;;;;;;;;;;5051322;28;20028;-74
2023/09/04 01:39:55;;;;;;;3.80;2.17;;;;;;;;;;5052390;28;20506;-74
2023/09/04 01:42:20;;;;;;;2.75;1.95;;;;;;;;;;5052705;28;20028;-74
2023/09/04 01:44:45;;;;;;;3.75;2.33;;;;;;;;;;5052772;28;20041;-74
2023/09/04 01:47:11;;;;;;;4.23;2.27;;;;;;;;;;5051281;28;20025;-74
2023/09/04 01:49:36;;;;;;;2.92;2.33;;;;;;;;;;5052426;28;20278;-74
2023/09/04 01:52:02;;;;;;;4.63;2.13;;;;;;;;;;5052397;28;20389;-74
2023/09/04 01:54:27;;;;;;;3.33;2.10;;;;;;;;;;5052675;28;20112;-74
2023/09/04 01:56:52;;;;;;;4.38;2.15;;;;;;;;;;5052440;28;20055;-74
2023/09/04 01:59:18;;;;;;;3.72;2.45;;;;;;;;;;5052107;28;20521;-75
2023/09/04 02:01:43;;;;;;;2.60;2.00;;;;;;;;;;5052682;28;20027;-74
2023/09/04 02:04:08;;;;;;;5.32;2.30;;;;;;;;;;5052334;28;20033;-74
2023/09/04 02:06:34;;;;;;;3.42;2.05;;;;;;;;;;5051009;28;20020;-74
2023/09/04 02:08:59;;;;;;;2.80;2.10;;;;;;;;;;5052105;28;20455;-74
2023/09/04 02:11:24;;;;;;;4.30;2.22;;;;;;;;;;5054137;28;20057;-74
2023/09/04 02:13:49;;;;;;;4.75;2.28;;;;;;;;;;5056047;28;20047;-74
2023/09/04 02:16:15;;;;;;;3.03;2.15;;;;;;;;;;5055960;28;20079;-74
2023/09/04 02:18:41;;;;;;;3.85;2.20;;;;;;;;;;5054635;28;20391;-74
2023/09/04 02:21:07;;;;;;;5.40;2.20;;;;;;;;;;5053124;28;20021;-75
2023/09/04 02:23:32;;;;;;;5.07;2.47;;;;;;;;;;5054340;28;20021;-75
2023/09/04 02:25:58;;;;;;;4.45;2.40;;;;;;;;;;5055918;28;20036;-74
2023/09/04 02:28:24;;;;;;;3.45;2.20;;;;;;;;;;5055543;28;20021;-75
2023/09/04 02:30:49;;;;;;;3.75;2.38;;;;;;;;;;5054460;28;20052;-74
2023/09/04 02:33:15;;;;;;;3.58;2.10;;;;;;;;;;5053568;28;20455;-74
2023/09/04 02:35:40;;;;;;;3.58;2.50;;;;;;;;;;5055924;28;20143;-74
2023/09/04 02:38:06;;;;;;;3.97;2.30;;;;;;;;;;5055633;28;20024;-73
2023/09/04 02:40:31;;;;;;;5.32;2.45;;;;;;;;;;5055380;28;20112;-74
2023/09/04 02:42:56;;;;;;;3.63;2.50;;;;;;;;;;5054326;28;20510;-74
2023/09/04 02:45:22;;;;;;;5.05;2.20;;;;;;;;;;5055492;28;20365;-73
2023/09/04 02:47:47;;;;;;;5.47;2.50;;;;;;;;;;5054104;28;20025;-74
2023/09/04 02:50:12;;;;;;;2.42;2.08;;;;;;;;;;5055289;28;20504;-74
2023/09/04 02:52:38;;;;;;;3.50;2.25;;;;;;;;;;5055379;28;20484;-74
2023/09/04 02:55:04;;;;;;;3.20;2.30;;;;;;;;;;5055194;28;20020;-74
2023/09/04 02:57:31;;;;;;;4.32;2.38;;;;;;;;;;5055485;28;20071;-74
2023/09/04 02:59:56;;;;;;;3.30;2.50;;;;;;;;;;5053796;28;20078;-73
2023/09/04 03:02:22;;;;;;;5.53;2.47;;;;;;;;;;5055489;28;20024;-74
2023/09/04 03:04:52;;;;;;;6.63;2.53;;;;;;;;;;5055079;28;20045;-73
2023/09/04 03:07:18;;;;;;;3.38;2.38;;;;;;;;;;5054102;28;20482;-74
2023/09/04 03:09:43;;;;;;;3.25;2.20;;;;;;;;;;5054940;28;20028;-74
2023/09/04 03:12:08;;;;;;;3.78;2.50;;;;;;;;;;5054965;28;20071;-73
2023/09/04 03:14:34;;;;;;;4.45;2.30;;;;;;;;;;5054982;28;20107;-74
2023/09/04 03:16:59;;;;;;;3.45;2.25;;;;;;;;;;5054988;28;20133;-74
2023/09/04 03:19:24;;;;;;;3.58;2.20;;;;;;;;;;5054865;28;20024;-74
2023/09/04 03:21:49;;;;;;;4.40;2.40;;;;;;;;;;5054043;28;20391;-74
2023/09/04 03:24:15;;;;;;;5.38;2.38;;;;;;;;;;5055243;28;20032;-73
2023/09/04 03:26:40;;;;;;;3.67;2.22;;;;;;;;;;5055270;28;20399;-74
2023/09/04 03:29:05;;;;;;;7.85;3.78;;;;;;;;;;5054724;28;20108;-73
2023/09/04 03:31:31;;;;;;;5.45;3.15;;;;;;;;;;5054924;28;20029;-74
2023/09/04 03:33:56;;;;;;;3.80;2.83;;;;;;;;;;5054993;28;20048;-73
2023/09/04 03:36:22;;;;;;;4.60;2.92;;;;;;;;;;5055061;28;20021;-73
2023/09/04 03:38:47;;;;;;;5.25;2.88;;;;;;;;;;5055086;28;20476;-73
2023/09/04 03:41:12;;;;;;;7.00;2.90;;;;;;;;;;5054955;28;20064;-75
2023/09/04 03:43:37;;;;;;;5.45;2.47;;;;;;;;;;5055225;28;20254;-74
2023/09/04 03:46:03;;;;;;;3.80;2.83;;;;;;;;;;5053422;28;20051;-74
2023/09/04 03:48:28;;;;;;;3.00;2.47;;;;;;;;;;5054825;28;20277;-73
2023/09/04 03:50:57;;;;;;;3.47;2.55;;;;;;;;;;5054599;28;20056;-74
2023/09/04 03:53:22;;;;;;;5.32;2.50;;;;;;;;;;5054580;28;20025;-73
2023/09/04 03:55:48;;;;;;;5.40;2.08;;;;;;;;;;5054743;28;20574;-73
2023/09/04 03:58:14;;;;;;;4.60;2.40;;;;;;;;;;5054480;28;20017;-74
2023/09/04 04:00:39;;;;;;;5.05;1.88;;;;;;;;;;5054276;28;20029;-73
2023/09/04 04:03:04;;;;;;;4.13;2.33;;;;;;;;;;5054386;28;20071;-74
2023/09/04 04:05:29;;;;;;;4.43;2.13;;;;;;;;;;5054290;28;20258;-74
2023/09/04 04:07:55;;;;;;;5.95;2.22;;;;;;;;;;5053168;28;20035;-73
2023/09/04 04:10:20;;;;;;;2.85;2.20;;;;;;;;;;5052679;28;20393;-74
2023/09/04 04:12:46;;;;;;;6.32;2.05;;;;;;;;;;5052708;28;20024;-74
2023/09/04 04:15:11;;;;;;;3.30;2.20;;;;;;;;;;5054031;28;20115;-73
2023/09/04 04:17:37;;;;;;;4.95;2.30;;;;;;;;;;5053988;28;20086;-73
2023/09/04 04:20:10;;;;;;;4.40;2.13;;;;;;;;;;5053914;28;20032;-75
2023/09/04 04:22:35;;;;;;;2.95;2.08;;;;;;;;;;5053905;28;20021;-74
2023/09/04 04:25:01;;;;;;;3.97;2.20;;;;;;;;;;5053682;28;20040;-75
2023/09/04 04:27:26;;;;;;;3.28;2.10;;;;;;;;;;5052351;28;20262;-74
2023/09/04 04:31:04;;;;;;;;;;;;;;;;;;;;;
2023/09/04 04:33:57;;;;;;;4.45;2.13;;;;;;;;;;4937561;28;20478;-73
2023/09/04 04:43:09;;;;;;;4.18;2.08;;;;;;;;;;5014234;28;20076;-73
2023/09/04 04:45:34;;;;;;;2.97;2.30;;;;;;;;;;5013668;28;20046;-73
2023/09/04 04:48:01;;;;;;;5.40;2.25;;;;;;;;;;5013722;28;20405;-73
2023/09/04 04:50:26;;;;;;;4.78;2.33;;;;;;;;;;5013840;28;20045;-74
2023/09/04 04:52:51;;;;;;;4.43;2.22;;;;;;;;;;5013893;28;20440;-73
2023/09/04 04:55:16;;;;;;;2.37;2.10;;;;;;;;;;5013937;28;20425;-73
2023/09/04 04:57:42;;;;;;;2.95;2.20;;;;;;;;;;5013331;28;20255;-73
2023/09/04 05:00:08;;;;;;;2.55;2.10;;;;;;;;;;5013345;28;20103;-73
2023/09/04 05:02:34;;;;;;;4.28;2.30;;;;;;;;;;5013252;28;20374;-74
2023/09/04 05:04:59;;;;;;;6.15;2.25;;;;;;;;;;5012078;28;20033;-74
2023/09/04 05:07:24;;;;;;;3.35;2.42;;;;;;;;;;5010574;28;20117;-74
2023/09/04 05:09:53;;;;;;;4.75;2.55;;;;;;;;;;5012297;28;20527;-75
2023/09/04 05:12:19;;;;;;;5.28;2.40;;;;;;;;;;5012319;28;20511;-75
2023/09/04 05:14:44;;;;;;;5.53;2.50;;;;;;;;;;5011254;28;20033;-73
2023/09/04 05:17:09;;;;;;;3.97;2.17;;;;;;;;;;5013373;28;20029;-77
2023/09/04 05:19:34;;;;;;;7.88;2.35;;;;;;;;;;5013600;28;20304;-74
2023/09/04 05:22:00;;;;;;;4.78;2.60;;;;;;;;;;5012363;28;20088;-73
2023/09/04 05:24:25;;;;;;;5.43;2.20;;;;;;;;;;5012953;28;20075;-73
2023/09/04 05:26:50;;;;;;;3.85;2.50;;;;;;;;;;5013045;28;20049;-74
2023/09/04 05:29:16;;;;;;;5.60;2.38;;;;;;;;;;5013101;28;20552;-72
2023/09/04 05:31:41;;;;;;;5.35;2.40;;;;;;;;;;5012950;28;20549;-73
2023/09/04 05:34:06;;;;;;;7.57;2.35;;;;;;;;;;5011761;28;20049;-73
2023/09/04 05:36:31;;;;;;;6.13;2.20;;;;;;;;;;5013014;28;20032;-73
2023/09/04 05:38:57;;;;;;;3.80;2.35;;;;;;;;;;5012074;28;20352;-72
2023/09/04 05:41:22;;;;;;;5.25;2.95;;;;;;;;;;5012877;28;20108;-73
2023/09/04 05:43:47;;;;;;;5.78;2.28;;;;;;;;;;5012911;28;20033;-73
2023/09/04 05:46:12;;;;;;;6.40;2.30;;;;;;;;;;5014416;28;20030;-73
2023/09/04 05:48:38;;;;;;;3.90;2.20;;;;;;;;;;5016749;28;20033;-73
2023/09/04 05:51:03;;;;;;;2.42;2.10;;;;;;;;;;5017016;28;20630;-74
2023/09/04 05:53:29;;;;;;;4.82;2.40;;;;;;;;;;5015440;28;20072;-72
2023/09/04 05:56:05;;;;;;;3.80;2.42;;;;;;;;;;5016864;28;20033;-73
2023/09/04 05:58:30;;;;;;;5.50;2.30;;;;;;;;;;5015155;28;20021;-72
2023/09/04 06:00:56;;;;;;;4.35;2.28;;;;;;;;;;5015062;28;20477;-73
2023/09/04 06:03:21;;;;;;;4.47;2.13;;;;;;;;;;5016544;28;20029;-74
2023/09/04 06:05:46;;;;;;;6.45;2.80;;;;;;;;;;5016686;28;20033;-73
2023/09/04 06:08:11;;;;;;;4.70;2.33;;;;;;;;;;5015235;28;20030;-76
2023/09/04 06:10:37;;;;;;;3.72;2.30;;;;;;;;;;5017794;28;20067;-76
2023/09/04 06:13:02;;;;;;;3.92;2.30;;;;;;;;;;5018188;28;20159;-77
2023/09/04 06:15:27;;;;;;;3.97;2.40;;;;;;;;;;5017042;28;20109;-77
2023/09/04 06:17:53;;;;;;;3.90;2.30;;;;;;;;;;5015296;28;20017;-78
2023/09/04 06:20:18;;;;;;;3.92;2.40;;;;;;;;;;5016346;28;20271;-75
2023/09/04 06:22:43;;;;;;;5.07;2.13;;;;;;;;;;5015177;28;20021;-76
2023/09/04 06:25:08;;;;;;;4.22;2.22;;;;;;;;;;5016101;28;20030;-74
2023/09/04 06:27:34;;;;;;;5.70;2.70;;;;;;;;;;5015800;28;20060;-76
2023/09/04 06:29:59;;;;;;;2.77;1.97;;;;;;;;;;5016048;28;20017;-75
2023/09/04 06:32:24;;;;;;;5.32;2.20;;;;;;;;;;5015925;28;20322;-75
2023/09/04 06:34:49;;;;;;;4.23;2.20;;;;;;;;;;5015220;28;20038;-75
2023/09/04 06:37:15;;;;;;;3.08;2.10;;;;;;;;;;5014153;28;20283;-76
2023/09/04 06:39:41;;;;;;;4.32;1.85;;;;;;;;;;5014417;28;20104;-77
2023/09/04 06:42:09;;;;;;;2.40;1.83;;;;;;;;;;5015304;28;20060;-78
2023/09/04 06:44:35;;;;;;;2.45;1.80;;;;;;;;;;5015020;28;20066;-77
2023/09/04 06:47:00;;;;;;;8.52;2.15;;;;;;;;;;5015143;28;20018;-77
2023/09/04 06:49:25;;;;;;;2.73;1.87;;;;;;;;;;5015139;28;20027;-77
2023/09/04 06:51:50;;;;;;;7.32;2.42;;;;;;;;;;5015094;28;20267;-76
2023/09/04 06:54:15;;;;;;;2.23;1.80;;;;;;;;;;5015421;28;20386;-77
2023/09/04 06:56:41;;;;;;;4.28;2.13;;;;;;;;;;5014507;28;20634;-76
2023/09/04 06:59:06;;;;;;;5.53;2.00;;;;;;;;;;5013506;28;20018;-75
2023/09/04 07:01:31;;;;;;;5.17;1.80;;;;;;;;;;5014447;28;20727;-75
2023/09/04 07:03:56;;;;;;;3.72;1.95;;;;;;;;;;5013485;28;20357;-74
2023/09/04 07:06:22;;;;;;;2.65;1.85;;;;;;;;;;5014001;28;20021;-73
2023/09/04 07:08:47;;;;;;;4.10;2.30;;;;;;;;;;5013777;28;20026;-73
2023/09/04 07:11:12;;;;;;;2.45;1.65;;;;;;;;;;5014047;28;20017;-74
2023/09/04 07:13:38;;;;;;;2.50;1.73;;;;;;;;;;5013551;28;20084;-73
2023/09/04 07:16:03;;;;;;;2.65;1.92;;;;;;;;;;5012957;28;20061;-74
2023/09/04 07:18:28;;;;;;;2.50;1.67;;;;;;;;;;5013836;28;20065;-72
2023/09/04 07:20:54;;;;;;;3.67;1.80;;;;;;;;;;5014400;28;20028;-73
2023/09/04 07:23:20;;;;;;;2.80;1.88;;;;;;;;;;5013860;28;20339;-74
2023/09/04 07:25:45;;;;;;;7.85;2.22;;;;;;;;;;5013899;28;20056;-73
2023/09/04 07:28:10;;;;;;;3.93;1.77;;;;;;;;;;5014072;28;20469;-73
2023/09/04 07:30:36;;;;;;;3.70;1.80;;;;;;;;;;5014561;28;20270;-74
2023/09/04 07:33:01;;;;;;;2.47;1.80;;;;;;;;;;5014253;28;20394;-73
2023/09/04 07:35:27;;;;;;;3.05;1.92;;;;;;;;;;4978311;28;1008176;-73
2023/09/04 07:37:52;;;;;;;3.30;1.85;;;;;;;;;;5013779;28;20441;-72
2023/09/04 07:40:18;;;;;;;4.03;1.90;;;;;;;;;;5014739;28;20038;-74
2023/09/04 07:42:44;;;;;;;4.30;1.90;;;;;;;;;;5013674;28;20076;-74
2023/09/04 07:45:10;;;;;;;2.40;1.70;;;;;;;;;;5014597;28;20079;-74
2023/09/04 07:47:38;;;;;;;3.03;1.75;;;;;;;;;;5014461;28;20065;-74
2023/09/04 07:50:04;;;;;;;2.88;1.77;;;;;;;;;;5014670;28;20033;-74
2023/09/04 07:52:29;;;;;;;5.70;2.03;;;;;;;;;;5014767;28;20030;-74
2023/09/04 07:54:54;;;;;;;3.17;1.67;;;;;;;;;;5015042;28;20037;-74
2023/09/04 07:57:20;;;;;;;2.25;1.63;;;;;;;;;;5013428;28;20267;-73
2023/09/04 07:59:45;;;;;;;7.13;1.67;;;;;;;;;;5014350;28;20505;-74
2023/09/04 08:02:10;;;;;;;4.18;1.63;;;;;;;;;;5014331;28;20032;-74
2023/09/04 08:04:36;;;;;;;4.85;2.00;;;;;;;;;;5014199;28;20498;-74
2023/09/04 08:07:01;;;;;;;3.30;1.95;;;;;;;;;;5014308;28;20026;-74
2023/09/04 08:09:26;;;;;;;2.38;1.75;;;;;;;;;;5013298;28;20057;-74
2023/09/04 08:11:52;;;;;;;4.03;1.77;;;;;;;;;;5014307;28;20021;-74
2023/09/04 08:14:17;;;;;;;3.80;2.00;;;;;;;;;;5014004;28;20440;-73
2023/09/04 08:16:42;;;;;;;4.32;1.88;;;;;;;;;;5014581;28;20037;-77
2023/09/04 08:19:08;;;;;;;4.15;1.90;;;;;;;;;;5015243;28;20484;-74
2023/09/04 08:21:33;;;;;;;5.88;1.83;;;;;;;;;;5014245;28;20445;-73
2023/09/04 08:23:58;;;;;;;4.22;2.00;;;;;;;;;;5014462;28;20025;-75
2023/09/04 08:26:24;;;;;;;4.35;2.00;;;;;;;;;;5014973;28;20026;-75
2023/09/04 08:28:49;;;;;;;3.55;1.70;;;;;;;;;;5014245;28;20028;-76
2023/09/04 08:31:14;;;;;;;3.38;1.63;;;;;;;;;;5014118;28;20026;-76
2023/09/04 08:33:39;;;;;;;4.95;1.55;;;;;;;;;;5012422;28;20457;-76
2023/09/04 08:36:05;;;;;;;3.90;1.80;;;;;;;;;;5014665;28;20030;-76
2023/09/04 08:38:31;;;;;;;4.63;1.63;;;;;;;;;;5012291;28;20112;-75
2023/09/04 08:44:50;;;;;;;2.00;1.50;;;;;;;;;;4953476;29;20110;-77
2023/09/04 08:47:19;;;;;;;3.10;1.73;;;;;;;;;;5012169;28;20037;-75
2023/09/04 08:49:44;;;;;;;2.25;1.45;;;;;;;;;;5012457;28;20401;-75
2023/09/04 08:52:10;;;;;;;1.90;1.27;;;;;;;;;;5012178;28;20029;-76
2023/09/04 08:54:36;;;;;;;2.65;1.27;;;;;;;;;;5013598;28;20406;-75
2023/09/04 08:57:01;;;;;;;3.05;1.40;;;;;;;;;;5014026;28;20021;-74
2023/09/04 08:59:27;;;;;;;1.77;1.20;;;;;;;;;;5013751;28;20545;-75
2023/09/04 09:01:55;;;;;;;2.55;1.33;;;;;;;;;;5013497;28;20050;-75
2023/09/04 09:04:21;;;;;;;3.65;1.38;;;;;;;;;;5013785;28;20022;-74
2023/09/04 09:06:48;;;;;;;3.00;1.17;;;;;;;;;;5013740;28;20037;-74
2023/09/04 09:09:15;;;;;;;2.28;1.33;;;;;;;;;;5013994;28;20093;-75
2023/09/04 09:11:42;;;;;;;4.72;1.20;;;;;;;;;;5012340;28;20049;-76
2023/09/04 09:14:07;;;;;;;4.07;1.30;;;;;;;;;;5012462;28;20030;-76
2023/09/04 09:16:33;;;;;;;4.88;1.25;;;;;;;;;;5013010;28;20030;-78
2023/09/04 09:18:58;;;;;;;1.38;0.93;;;;;;;;;;5012844;28;20113;-77
2023/09/04 09:21:33;;;;;;;1.35;0.82;;;;;;;;;;5012284;28;20061;-77
2023/09/04 09:24:20;;;;;;;2.90;1.10;;;;;;;;;;5013489;28;20104;-77
2023/09/04 09:26:47;;;;;;;2.45;1.30;;;;;;;;;;5010304;28;20021;-78
2023/09/04 09:29:13;;;;;;;1.73;1.20;;;;;;;;;;5012593;28;20030;-77
2023/09/04 09:31:41;;;;;;;3.47;1.20;;;;;;;;;;5013557;28;20110;-77
2023/09/04 09:34:06;;;;;;;4.03;1.95;;;;;;;;;;5016506;28;20022;-78
2023/09/04 09:36:33;;;;;;;2.28;1.50;;;;;;;;;;5017478;28;20064;-79
2023/09/04 09:38:58;;;;;;;3.83;1.63;;;;;;;;;;5022555;28;20038;-78
2023/09/04 09:41:25;;;;;;;2.60;1.70;;;;;;;;;;5023675;28;20045;-79
2023/09/04 09:43:51;;;;;;;3.75;1.98;;;;;;;;;;5020533;28;20042;-78
2023/09/04 09:46:17;;;;;;;2.88;1.80;;;;;;;;;;5021200;28;20026;-78
2023/09/04 09:48:46;;;;;;;4.25;1.90;;;;;;;;;;5020684;28;20080;-78
2023/09/04 09:51:12;;;;;;;4.60;1.73;;;;;;;;;;5025199;28;20409;-78
2023/09/04 09:53:51;;;;;;;4.25;1.80;;;;;;;;;;5024285;28;20041;-78
2023/09/04 09:56:18;;;;;;;2.92;1.70;;;;;;;;;;5025878;28;20060;-78
2023/09/04 09:58:49;;;;;;;2.38;1.70;;;;;;;;;;5027644;28;20048;-78
2023/09/04 10:01:16;;;;;;;5.47;1.60;;;;;;;;;;5018679;28;20067;-77
2023/09/04 10:03:44;;;;;;;2.45;1.60;;;;;;;;;;5013714;28;20101;-77
2023/09/04 10:06:14;;;;;;;2.85;1.70;;;;;;;;;;5013923;28;20473;-77
2023/09/04 10:08:42;;;;;;;2.30;1.55;;;;;;;;;;5014336;28;20033;-76
2023/09/04 10:11:10;;;;;;;2.20;1.85;;;;;;;;;;5014121;28;20057;-77
2023/09/04 10:14:11;;;;;;;2.28;1.75;;;;;;;;;;5014117;28;20132;-77
2023/09/04 10:16:43;;;;;;;3.67;1.92;;;;;;;;;;5012433;28;20049;-79
2023/09/04 10:19:10;;;;;;;2.72;1.70;;;;;;;;;;5013980;28;20116;-76
2023/09/04 10:21:40;;;;;;;2.35;1.60;;;;;;;;;;5015010;28;20054;-77
2023/09/04 10:24:11;;;;;;;4.07;1.90;;;;;;;;;;5014299;28;20469;-78
2023/09/04 10:26:57;;;;;;;6.25;2.00;;;;;;;;;;5013670;28;20026;-77
2023/09/04 10:29:25;;;;;;;2.90;1.67;;;;;;;;;;5011478;28;20638;-77
2023/09/04 10:31:51;;;;;;;2.63;1.83;;;;;;;;;;5012857;28;20148;-77
2023/09/04 10:34:16;;;;;;;3.53;1.60;;;;;;;;;;5017238;28;20136;-77
2023/09/04 10:36:42;;;;;;;2.33;1.70;;;;;;;;;;5014607;28;20037;-76
2023/09/04 10:39:21;;;;;;;3.13;1.65;;;;;;;;;;5016168;28;20153;-77
2023/09/04 10:41:46;;;;;;;4.38;1.52;;;;;;;;;;5016658;28;20037;-77
2023/09/04 10:44:48;;;;;;;2.35;1.50;;;;;;;;;;5016928;28;20440;-77
2023/09/04 10:47:14;;;;;;;3.72;1.55;;;;;;;;;;5016096;28;20104;-77
2023/09/04 10:49:41;;;;;;;2.47;1.60;;;;;;;;;;5016882;28;20546;-72
2023/09/04 10:52:07;;;;;;;2.50;1.77;;;;;;;;;;5015866;28;20592;-72
2023/09/04 10:54:32;;;;;;;2.53;1.60;;;;;;;;;;5016430;28;20034;-73
2023/09/04 10:57:07;;;;;;;2.95;1.67;;;;;;;;;;5016872;28;20497;-73
2023/09/04 10:59:54;;;;;;;5.32;1.67;;;;;;;;;;5013411;28;20021;-74
2023/09/04 11:02:46;;;;;;;2.85;1.52;;;;;;;;;;5013451;28;20084;-75
2023/09/04 11:05:12;;;;;;;2.00;1.40;;;;;;;;;;5012129;28;20054;-74
2023/09/04 11:07:37;;;;;;;2.72;1.50;;;;;;;;;;5014663;28;20385;-74
2023/09/04 11:10:17;;;;;;;2.63;1.50;;;;;;;;;;5015801;28;20037;-72
2023/09/04 11:12:44;;;;;;;2.40;1.58;;;;;;;;;;5018024;28;20069;-73
2023/09/04 11:15:16;;;;;;;2.20;1.40;;;;;;;;;;5015936;28;20029;-72
2023/09/04 11:17:48;;;;;;;2.53;1.50;;;;;;;;;;5017452;28;20022;-73
2023/09/04 11:20:14;;;;;;;6.00;1.40;;;;;;;;;;5016954;28;20030;-72
2023/09/04 11:22:44;;;;;;;2.05;1.30;;;;;;;;;;5017649;28;20029;-72
2023/09/04 11:25:10;;;;;;;3.05;1.50;;;;;;;;;;5017351;28;20026;-73
2023/09/04 11:27:35;;;;;;;4.27;1.50;;;;;;;;;;5017365;28;20077;-72
2023/09/04 11:30:01;;;;;;;3.75;1.70;;;;;;;;;;5017165;28;20325;-72
2023/09/04 11:32:27;;;;;;;3.53;1.60;;;;;;;;;;5017041;28;20112;-72
2023/09/04 11:34:52;;;;;;;3.42;1.60;;;;;;;;;;5017062;28;20065;-72
2023/09/04 11:37:17;;;;;;;3.08;1.63;;;;;;;;;;5016177;28;20021;-72
2023/09/04 11:39:59;;;;;;;4.57;1.75;;;;;;;;;;5016436;28;20022;-73
2023/09/04 11:42:28;;;;;;;1.92;1.58;;;;;;;;;;5016890;28;20042;-72
2023/09/04 11:44:59;;;;;;;2.20;1.58;;;;;;;;;;5013168;28;20042;-72
2023/09/04 11:47:30;;;;;;;2.58;1.58;;;;;;;;;;5014222;28;20066;-73
2023/09/04 11:49:55;;;;;;;3.13;1.80;;;;;;;;;;5013641;28;20508;-73
2023/09/04 11:52:26;;;;;;;2.60;1.60;;;;;;;;;;5016456;28;20033;-71
2023/09/04 11:54:52;;;;;;;1.77;1.40;;;;;;;;;;5015276;28;20259;-72
2023/09/04 11:57:18;;;;;;;6.70;1.63;;;;;;;;;;5016820;28;20037;-71
2023/09/04 11:59:43;;;;;;;2.53;1.60;;;;;;;;;;5016230;28;20021;-72
2023/09/04 12:02:08;;;;;;;2.55;1.58;;;;;;;;;;5016365;28;20022;-72
2023/09/04 12:04:34;;;;;;;3.35;2.13;;;;;;;;;;5016499;28;20029;-72
2023/09/04 12:07:00;;;;;;;6.75;1.40;;;;;;;;;;5016494;28;20109;-72
2023/09/04 12:09:26;;;;;;;2.75;1.58;;;;;;;;;;5016355;28;20030;-72
2023/09/04 12:11:53;;;;;;;2.25;1.50;;;;;;;;;;5015209;28;20440;-72
2023/09/04 12:14:19;;;;;;;3.95;1.50;;;;;;;;;;5016524;28;20033;-72
2023/09/04 12:16:45;;;;;;;5.43;1.52;;;;;;;;;;5016027;28;20036;-72
2023/09/04 12:19:11;;;;;;;2.67;1.40;;;;;;;;;;5015120;28;20112;-71
2023/09/04 12:21:37;;;;;;;1.98;1.65;;;;;;;;;;5016395;28;20101;-72
2023/09/04 12:24:13;;;;;;;2.25;1.48;;;;;;;;;;5016029;28;20476;-71
2023/09/04 12:26:39;;;;;;;3.90;1.63;;;;;;;;;;5016072;28;20049;-71
2023/09/04 12:29:05;;;;;;;3.28;1.50;;;;;;;;;;5015534;28;20045;-71
2023/09/04 12:31:30;;;;;;;2.08;1.20;;;;;;;;;;5016124;28;20037;-72
2023/09/04 12:33:56;;;;;;;2.50;1.70;;;;;;;;;;5015787;28;20075;-72
2023/09/04 12:36:21;;;;;;;3.05;1.75;;;;;;;;;;5015553;28;20127;-72
2023/09/04 12:38:47;;;;;;;2.95;1.50;;;;;;;;;;5014268;28;20018;-71
2023/09/04 12:41:12;;;;;;;1.85;1.50;;;;;;;;;;5015503;28;20489;-72
2023/09/04 12:43:37;;;;;;;2.88;1.60;;;;;;;;;;5015315;28;20034;-71
2023/09/04 12:46:02;;;;;;;2.53;1.40;;;;;;;;;;5014206;28;20037;-73
2023/09/04 12:48:28;;;;;;;2.00;1.60;;;;;;;;;;5014637;28;20030;-78
2023/09/04 12:50:53;;;;;;;2.17;1.50;;;;;;;;;;5015053;28;20270;-71
2023/09/04 12:53:18;;;;;;;5.00;1.52;;;;;;;;;;5014047;28;20025;-72
2023/09/04 12:55:43;;;;;;;3.40;1.60;;;;;;;;;;5014758;28;20045;-72
2023/09/04 12:58:14;;;;;;;2.88;1.48;;;;;;;;;;5014758;28;20262;-78
2023/09/04 13:00:43;;;;;;;3.03;1.50;;;;;;;;;;5014333;28;20025;-71
2023/09/04 13:03:09;;;;;;;2.70;1.88;;;;;;;;;;5014589;28;20392;-71
2023/09/04 13:05:35;;;;;;;3.70;1.67;;;;;;;;;;5014652;28;20030;-71
2023/09/04 13:08:00;;;;;;;3.67;1.40;;;;;;;;;;5014760;28;20018;-71
2023/09/04 13:10:25;;;;;;;5.65;1.45;;;;;;;;;;5013992;28;20030;-71
2023/09/04 13:12:51;;;;;;;2.47;1.60;;;;;;;;;;5014234;28;20482;-71
2023/09/04 13:15:16;;;;;;;3.37;1.40;;;;;;;;;;5014115;28;20507;-71
2023/09/04 13:17:42;;;;;;;2.03;1.40;;;;;;;;;;5013823;28;20256;-71
2023/09/04 13:20:10;;;;;;;3.92;1.65;;;;;;;;;;5013686;28;20501;-72
2023/09/04 13:22:36;;;;;;;4.15;1.75;;;;;;;;;;5013705;28;20084;-71
2023/09/04 13:25:02;;;;;;;3.63;1.45;;;;;;;;;;5011823;28;20022;-72
2023/09/04 13:27:27;;;;;;;3.30;1.48;;;;;;;;;;5013184;28;20486;-72
2023/09/04 13:29:52;;;;;;;2.43;1.40;;;;;;;;;;5012661;28;20028;-72
2023/09/04 13:32:17;;;;;;;1.70;1.30;;;;;;;;;;5012369;28;20317;-71
2023/09/04 13:34:43;;;;;;;2.38;1.35;;;;;;;;;;5014348;28;20819;-72
2023/09/04 13:37:08;;;;;;;3.70;1.23;;;;;;;;;;5013142;28;20458;-74
2023/09/04 13:39:33;;;;;;;1.40;1.20;;;;;;;;;;5013017;28;20255;-72
2023/09/04 13:41:59;;;;;;;2.55;1.30;;;;;;;;;;5013430;28;20168;-72
2023/09/04 13:44:25;;;;;;;1.70;1.17;;;;;;;;;;5012794;28;20040;-72
2023/09/04 13:46:51;;;;;;;4.32;1.30;;;;;;;;;;5012855;28;20029;-72
2023/09/04 13:49:16;;;;;;;2.20;1.20;;;;;;;;;;5012751;28;20104;-77
2023/09/04 13:51:41;;;;;;;5.78;1.38;;;;;;;;;;5011875;28;20037;-72
2023/09/04 13:54:10;;;;;;;1.80;1.30;;;;;;;;;;5011624;28;20564;-72
2023/09/04 13:56:36;;;;;;;1.55;1.20;;;;;;;;;;5011520;28;20256;-72
2023/09/04 13:59:01;;;;;;;2.35;1.20;;;;;;;;;;5012994;28;20492;-72
2023/09/04 14:01:26;;;;;;;9.83;1.67;;;;;;;;;;5012731;28;20028;-72
2023/09/04 14:03:52;;;;;;;2.05;1.20;;;;;;;;;;5012966;28;20271;-73
2023/09/04 14:06:17;;;;;;;3.15;1.40;;;;;;;;;;5012796;28;20052;-72
2023/09/04 14:08:42;;;;;;;5.27;1.10;;;;;;;;;;5016367;28;20065;-71
2023/09/04 14:11:09;;;;;;;1.63;1.07;;;;;;;;;;5016996;28;20267;-72
2023/09/04 14:13:34;;;;;;;5.30;2.13;;;;;;;;;;5016438;28;20267;-72
2023/09/04 14:16:00;;;;;;;2.35;1.40;;;;;;;;;;5016502;28;20028;-72
2023/09/04 14:18:25;;;;;;;2.70;1.42;;;;;;;;;;5016797;28;20053;-77
2023/09/04 14:20:50;;;;;;;3.33;1.25;;;;;;;;;;5016325;28;20499;-74
2023/09/04 14:23:16;;;;;;;2.92;1.17;;;;;;;;;;5014930;28;20041;-74
2023/09/04 14:25:48;;;;;;;3.43;1.00;;;;;;;;;;5016311;28;20473;-74
2023/09/04 14:28:14;;;;;;;1.58;1.15;;;;;;;;;;5016369;28;20580;-74
2023/09/04 14:30:40;;;;;;;4.20;1.30;;;;;;;;;;5016123;28;20046;-74
2023/09/04 14:33:05;;;;;;;4.13;1.33;;;;;;;;;;5014729;28;20080;-74
2023/09/04 14:35:32;;;;;;;2.60;1.20;;;;;;;;;;5014614;28;20251;-74
2023/09/04 14:37:57;;;;;;;2.20;1.08;;;;;;;;;;5015588;28;20298;-73
2023/09/04 14:40:28;;;;;;;1.85;1.20;;;;;;;;;;5014524;28;20104;-75
2023/09/04 14:42:53;;;;;;;2.80;1.20;;;;;;;;;;5014617;28;20045;-75
2023/09/04 14:45:19;;;;;;;2.40;1.30;;;;;;;;;;5015791;28;20022;-75
2023/09/04 14:47:46;;;;;;;1.83;1.17;;;;;;;;;;5015625;28;20037;-74
2023/09/04 14:50:12;;;;;;;5.15;1.50;;;;;;;;;;5015951;28;20274;-75
2023/09/04 14:52:37;;;;;;;2.65;1.20;;;;;;;;;;5015649;28;20026;-75